createdAt,value
2023-05-16T00:01:09.513Z,69.04
2023-05-16T00:04:13.210Z,66.19
2023-05-16T00:07:15.445Z,64.18
2023-05-16T00:10:17.414Z,65.84
2023-05-16T00:13:25.116Z,67.27
2023-05-16T00:16:30.283Z,69.66
2023-05-16T00:19:32.948Z,70.30
2023-05-16T00:22:34.856Z,69.30
2023-05-16T00:25:37.619Z,67.71
2023-05-16T00:28:39.477Z,69.51
2023-05-16T00:31:41.770Z,69.72
2023-05-16T00:34:43.702Z,70.11
2023-05-16T00:37:45.898Z,68.08
2023-05-16T00:40:47.898Z,68.04
2023-05-16T00:43:50.027Z,66.00
2023-05-16T00:46:52.658Z,62.95
2023-05-16T00:49:55.087Z,68.21
2023-05-16T00:52:57.079Z,71.20
2023-05-16T00:55:59.060Z,69.53
2023-05-16T00:59:01.356Z,70.54
2023-05-16T01:02:03.654Z,68.69
2023-05-16T01:05:05.714Z,67.01
2023-05-16T01:08:07.585Z,66.07
2023-05-16T01:11:28.502Z,65.42
2023-05-16T01:14:37.196Z,72.43
2023-05-16T01:17:58.211Z,74.34
2023-05-16T01:21:04.098Z,69.83
2023-05-16T01:24:13.242Z,66.20
2023-05-16T01:27:15.137Z,67.11
2023-05-16T01:30:17.975Z,71.19
2023-05-16T01:33:19.981Z,73.16
2023-05-16T01:36:26.536Z,74.27
2023-05-16T01:40:07.827Z,70.31
2023-05-16T01:43:11.898Z,68.74
2023-05-16T01:46:22.276Z,72.45
2023-05-16T01:49:31.246Z,74.84
2023-05-16T01:52:39.204Z,72.85
2023-05-16T01:55:45.988Z,74.88
2023-05-16T01:58:47.957Z,77.42
2023-05-16T02:01:49.847Z,73.98
2023-05-16T02:04:51.780Z,73.69
2023-05-16T02:07:53.693Z,73.18
2023-05-16T02:10:55.814Z,74.09
2023-05-16T02:13:58.028Z,74.36
2023-05-16T02:17:00.016Z,71.96
2023-05-16T02:20:06.890Z,71.10
2023-05-16T02:23:08.789Z,69.76
2023-05-16T02:26:10.690Z,75.03
2023-05-16T02:29:12.602Z,78.84
2023-05-16T02:32:14.529Z,80.92
2023-05-16T02:35:16.498Z,79.20
2023-05-16T02:38:20.952Z,73.43
2023-05-16T02:41:23.269Z,73.63
2023-05-16T02:44:25.374Z,71.85
2023-05-16T02:47:27.500Z,71.31
2023-05-16T02:50:29.448Z,71.20
2023-05-16T02:53:31.547Z,74.06
2023-05-16T02:56:33.495Z,72.65
2023-05-16T02:59:36.340Z,72.40
2023-05-16T03:02:38.564Z,71.07
2023-05-16T03:05:40.594Z,73.74
2023-05-16T03:08:42.471Z,73.36
2023-05-16T03:11:44.477Z,74.12
2023-05-16T03:14:46.348Z,71.88
2023-05-16T03:17:48.302Z,73.00
2023-05-16T03:20:50.698Z,73.17
2023-05-16T03:23:52.559Z,72.82
2023-05-16T03:26:54.534Z,72.92
2023-05-16T03:29:56.397Z,75.17
2023-05-16T03:32:58.468Z,74.52
2023-05-16T03:36:00.491Z,80.11
2023-05-16T03:39:02.648Z,78.54
2023-05-16T03:42:04.697Z,78.76
2023-05-16T03:45:06.946Z,76.77
2023-05-16T03:48:09.314Z,75.27
2023-05-16T03:51:11.349Z,73.84
2023-05-16T03:54:13.217Z,76.41
2023-05-16T03:57:15.118Z,76.39
2023-05-16T04:00:17.389Z,75.12
2023-05-16T04:03:19.380Z,73.05
2023-05-16T04:06:21.713Z,75.48
2023-05-16T04:09:23.999Z,72.84
2023-05-16T04:12:26.229Z,73.87
2023-05-16T04:15:28.459Z,73.25
2023-05-16T04:18:30.787Z,77.23
2023-05-16T04:21:32.671Z,77.11
2023-05-16T04:24:34.828Z,74.89
2023-05-16T04:27:36.773Z,76.18
2023-05-16T04:30:38.918Z,73.27
2023-05-16T04:33:41.575Z,73.79
2023-05-16T04:36:43.492Z,74.10
2023-05-16T04:39:45.550Z,71.78
2023-05-16T04:42:47.668Z,71.41
2023-05-16T04:45:49.711Z,73.86
2023-05-16T04:48:52.232Z,72.70
2023-05-16T04:51:54.462Z,73.86
2023-05-16T04:54:56.412Z,72.73
2023-05-16T04:57:58.328Z,71.36
2023-05-16T05:01:01.888Z,73.28
2023-05-16T05:04:03.966Z,73.49
2023-05-16T05:07:06.039Z,72.64
2023-05-16T05:10:08.821Z,70.98
2023-05-16T05:13:14.237Z,72.22
2023-05-16T05:16:16.319Z,71.30
2023-05-16T05:19:18.346Z,72.21
2023-05-16T05:22:20.489Z,70.07
2023-05-16T05:25:22.682Z,71.02
2023-05-16T05:28:24.599Z,73.05
2023-05-16T05:31:27.046Z,72.40
2023-05-16T05:34:29.269Z,72.26
2023-05-16T05:37:31.255Z,71.08
2023-05-16T05:40:33.199Z,72.95
2023-05-16T05:43:35.692Z,72.22
2023-05-16T05:46:37.941Z,70.99
2023-05-16T05:49:40.038Z,73.94
2023-05-16T05:52:42.111Z,72.99
2023-05-16T05:55:44.400Z,71.00
2023-05-16T05:58:46.485Z,71.35
2023-05-16T06:01:54.577Z,74.00
2023-05-16T06:04:56.732Z,74.28
2023-05-16T06:07:58.997Z,73.39
2023-05-16T06:11:01.254Z,73.50
2023-05-16T06:14:03.176Z,75.06
2023-05-16T06:17:05.424Z,75.86
2023-05-16T06:20:08.112Z,72.29
2023-05-16T06:23:10.093Z,72.70
2023-05-16T06:26:11.968Z,70.54
2023-05-16T06:29:13.904Z,72.18
2023-05-16T06:32:15.965Z,75.52
2023-05-16T06:35:18.043Z,74.67
2023-05-16T06:38:20.051Z,74.63
2023-05-16T06:41:22.176Z,73.79
2023-05-16T06:44:24.450Z,73.70
2023-05-16T06:47:28.116Z,73.03
2023-05-16T06:50:30.228Z,72.47
2023-05-16T06:53:32.367Z,70.36
2023-05-16T06:56:34.487Z,70.18
2023-05-16T06:59:36.941Z,71.68
2023-05-16T07:02:39.322Z,73.14
2023-05-16T07:05:44.027Z,69.31
2023-05-16T07:08:46.297Z,70.50
2023-05-16T07:11:48.308Z,72.68
2023-05-16T07:14:56.348Z,71.82
2023-05-16T07:17:58.474Z,71.32
2023-05-16T07:21:00.665Z,71.67
2023-05-16T07:24:02.718Z,71.44
2023-05-16T07:27:04.788Z,71.60
2023-05-16T07:30:07.842Z,73.97
2023-05-16T07:33:09.991Z,77.39
2023-05-16T07:36:16.890Z,77.41
2023-05-16T07:39:19.621Z,76.96
2023-05-16T07:42:22.010Z,74.25
2023-05-16T07:45:24.129Z,71.88
2023-05-16T07:48:28.398Z,72.38
2023-05-16T07:51:30.763Z,74.23
2023-05-16T07:54:33.386Z,76.29
2023-05-16T07:57:35.597Z,77.04
2023-05-16T08:00:37.783Z,77.40
2023-05-16T08:03:39.878Z,76.24
2023-05-16T08:06:42.552Z,78.08
2023-05-16T08:09:48.040Z,76.52
2023-05-16T08:12:50.466Z,75.63
2023-05-16T08:15:52.775Z,76.66
2023-05-16T08:18:55.516Z,78.92
2023-05-16T08:21:57.576Z,81.23
2023-05-16T08:25:00.753Z,80.32
2023-05-16T08:28:03.046Z,79.02
2023-05-16T08:31:05.358Z,83.39
2023-05-16T08:34:07.479Z,83.23
2023-05-16T08:37:10.410Z,84.54
2023-05-16T08:40:12.647Z,86.28
2023-05-16T08:43:14.615Z,84.75
2023-05-16T08:46:17.104Z,87.75
2023-05-16T08:49:19.448Z,83.60
2023-05-16T08:52:21.582Z,83.18
2023-05-16T08:55:23.970Z,82.82
2023-05-16T08:58:26.118Z,81.21
2023-05-16T09:01:35.082Z,84.95
2023-05-16T09:04:37.723Z,81.44
2023-05-16T09:07:40.847Z,82.06
2023-05-16T09:10:43.121Z,84.04
2023-05-16T09:13:45.274Z,80.80
2023-05-16T09:16:55.857Z,82.81
2023-05-16T09:19:59.252Z,79.41
2023-05-16T09:23:09.014Z,76.64
2023-05-16T09:26:11.089Z,81.91
2023-05-16T09:29:13.412Z,82.61
2023-05-16T09:32:16.492Z,81.43
2023-05-16T09:35:27.321Z,82.31
2023-05-16T09:38:41.212Z,81.55
2023-05-16T09:41:43.216Z,78.25
2023-05-16T09:44:57.682Z,79.67
2023-05-16T09:48:06.844Z,78.69
2023-05-16T09:51:09.955Z,77.96
2023-05-16T09:54:12.537Z,78.58
2023-05-16T09:57:17.952Z,83.12
2023-05-16T10:00:20.282Z,81.12
2023-05-16T10:03:22.335Z,80.08
2023-05-16T10:06:26.420Z,77.86
2023-05-16T10:09:34.217Z,80.85
2023-05-16T10:12:36.371Z,78.59
2023-05-16T10:15:39.071Z,80.63
2023-05-16T10:18:41.708Z,81.98
2023-05-16T10:21:46.123Z,80.31
2023-05-16T10:25:06.588Z,82.70
2023-05-16T10:28:08.854Z,81.63
2023-05-16T10:31:11.892Z,83.78
2023-05-16T10:34:14.619Z,80.54
2023-05-16T10:37:23.712Z,83.64
2023-05-16T10:40:29.547Z,83.70
2023-05-16T10:43:34.428Z,82.72
2023-05-16T10:46:36.483Z,81.96
2023-05-16T10:49:47.759Z,78.78
2023-05-16T10:52:52.715Z,78.25
2023-05-16T10:56:01.032Z,76.51
2023-05-16T10:59:05.976Z,77.15
2023-05-16T11:02:21.766Z,78.40
2023-05-16T11:05:25.683Z,80.45
2023-05-16T11:08:28.108Z,81.59
2023-05-16T11:11:48.953Z,81.19
2023-05-16T11:14:51.910Z,79.71
2023-05-16T11:18:09.601Z,83.00
2023-05-16T11:21:14.647Z,80.88
2023-05-16T11:24:33.048Z,78.40
2023-05-16T11:27:35.334Z,80.92
2023-05-16T11:30:37.516Z,76.95
2023-05-16T11:33:39.909Z,79.82
2023-05-16T11:36:42.675Z,79.73
2023-05-16T11:39:45.126Z,79.59
2023-05-16T11:42:52.031Z,75.39
2023-05-16T11:45:58.013Z,73.93
2023-05-16T11:49:00.776Z,80.83
2023-05-16T11:52:04.702Z,77.36
2023-05-16T11:55:08.115Z,83.23
2023-05-16T11:58:10.384Z,83.14
2023-05-16T12:01:12.983Z,81.40
2023-05-16T12:04:16.703Z,82.51
2023-05-16T12:07:20.381Z,78.21
2023-05-16T12:10:24.305Z,79.57
2023-05-16T12:13:31.864Z,78.39
2023-05-16T12:16:34.516Z,74.99
2023-05-16T12:19:36.711Z,78.89
2023-05-16T12:22:42.263Z,77.93
2023-05-16T12:25:49.520Z,83.83
2023-05-16T12:28:53.888Z,80.19
2023-05-16T12:31:56.201Z,79.25
2023-05-16T12:35:03.368Z,80.11
2023-05-16T12:38:06.108Z,74.73
2023-05-16T12:41:10.905Z,75.17
2023-05-16T12:44:20.194Z,76.03
2023-05-16T12:47:25.674Z,77.94
2023-05-16T12:50:28.376Z,78.03
2023-05-16T12:53:31.230Z,79.38
2023-05-16T12:56:33.431Z,79.37
2023-05-16T12:59:35.821Z,80.19
2023-05-16T13:02:38.308Z,77.13
2023-05-16T13:05:41.429Z,81.64
2023-05-16T13:08:43.576Z,77.97
2023-05-16T13:11:45.600Z,81.87
2023-05-16T13:14:47.782Z,77.85
2023-05-16T13:17:52.552Z,78.76
2023-05-16T13:20:55.070Z,76.99
2023-05-16T13:23:57.251Z,79.57
2023-05-16T13:26:59.872Z,77.18
2023-05-16T13:30:02.348Z,75.35
2023-05-16T13:33:04.680Z,74.20
2023-05-16T13:36:09.581Z,82.01
2023-05-16T13:39:14.906Z,79.17
2023-05-16T13:42:19.534Z,81.11
2023-05-16T13:45:21.699Z,78.31
2023-05-16T13:48:25.831Z,77.18
2023-05-16T13:51:28.978Z,73.19
2023-05-16T13:54:31.400Z,72.81
2023-05-16T13:57:33.449Z,73.88
2023-05-16T14:00:44.446Z,75.84
2023-05-16T14:03:48.120Z,75.77
2023-05-16T14:06:50.345Z,77.22
2023-05-16T14:09:55.904Z,73.72
2023-05-16T14:12:57.940Z,75.07
2023-05-16T14:16:00.494Z,75.75
2023-05-16T14:19:03.271Z,73.85
2023-05-16T14:22:11.751Z,74.10
2023-05-16T14:25:13.934Z,74.06
2023-05-16T14:28:16.276Z,72.91
2023-05-16T14:31:18.334Z,73.80
2023-05-16T14:34:20.957Z,76.56
2023-05-16T14:37:23.105Z,72.88
2023-05-16T14:40:25.448Z,73.83
2023-05-16T14:43:27.817Z,70.81
2023-05-16T14:46:30.091Z,70.90
2023-05-16T14:49:32.484Z,70.06
2023-05-16T14:52:34.653Z,75.15
2023-05-16T14:55:36.847Z,74.22
2023-05-16T14:58:41.260Z,74.59
2023-05-16T15:01:43.545Z,74.32
2023-05-16T15:04:46.003Z,72.85
2023-05-16T15:07:48.314Z,78.06
2023-05-16T15:10:56.081Z,76.64
2023-05-16T15:13:58.139Z,74.44
2023-05-16T15:17:00.785Z,74.79
2023-05-16T15:20:04.278Z,74.53
2023-05-16T15:23:16.255Z,77.53
2023-05-16T15:26:18.796Z,74.90
2023-05-16T15:29:21.410Z,76.74
2023-05-16T15:32:24.024Z,78.34
2023-05-16T15:35:26.631Z,79.67
2023-05-16T15:38:29.184Z,78.10
2023-05-16T15:42:05.254Z,75.95
2023-05-16T15:45:03.472Z,78.45
2023-05-16T15:48:11.183Z,76.20
2023-05-16T15:51:16.338Z,84.38
2023-05-16T15:54:21.934Z,79.21
2023-05-16T15:57:27.385Z,76.01
2023-05-16T16:00:29.864Z,76.71
2023-05-16T16:03:32.216Z,81.65
2023-05-16T16:06:34.815Z,77.97
2023-05-16T16:09:36.975Z,79.28
2023-05-16T16:12:39.423Z,79.64
2023-05-16T16:15:43.341Z,78.66
2023-05-16T16:18:45.901Z,82.08
2023-05-16T16:21:50.667Z,83.43
2023-05-16T16:24:53.215Z,82.24
2023-05-16T16:27:55.165Z,79.89
2023-05-16T16:30:57.246Z,82.22
2023-05-16T16:33:59.485Z,80.06
2023-05-16T16:37:02.194Z,80.96
2023-05-16T16:40:04.999Z,83.44
2023-05-16T16:43:07.044Z,83.22
2023-05-16T16:46:09.269Z,82.43
2023-05-16T16:49:17.147Z,82.57
2023-05-16T16:52:19.087Z,82.77
2023-05-16T16:55:21.320Z,81.71
2023-05-16T16:58:23.617Z,81.58
2023-05-16T17:01:28.196Z,83.70
2023-05-16T17:04:31.901Z,83.23
2023-05-16T17:07:34.068Z,82.72
2023-05-16T17:10:39.396Z,84.34
2023-05-16T17:17:01.026Z,86.88
2023-05-16T17:20:06.840Z,86.22
2023-05-16T17:23:08.964Z,82.01
2023-05-16T17:26:12.061Z,82.43
2023-05-16T17:29:14.137Z,85.92
2023-05-16T17:32:17.469Z,86.52
2023-05-16T17:35:20.868Z,88.69
2023-05-16T17:38:22.962Z,92.40
2023-05-16T17:41:30.883Z,91.09
2023-05-16T17:44:32.918Z,90.07
2023-05-16T17:47:34.956Z,90.51
2023-05-16T17:50:37.392Z,85.49
2023-05-16T17:53:39.446Z,86.38
2023-05-16T17:56:42.899Z,84.87
2023-05-16T17:59:45.221Z,81.43
2023-05-16T18:02:47.556Z,83.07
2023-05-16T18:05:50.629Z,85.85
2023-05-16T18:08:52.945Z,83.85
2023-05-16T18:11:58.060Z,85.38
2023-05-16T18:15:00.101Z,87.22
2023-05-16T18:18:02.485Z,87.16
2023-05-16T18:21:06.185Z,89.09
2023-05-16T18:24:11.551Z,84.13
2023-05-16T18:27:13.853Z,87.71
2023-05-16T18:30:16.284Z,92.01
2023-05-16T18:33:18.259Z,90.70
2023-05-16T18:36:20.438Z,91.50
2023-05-16T18:39:22.885Z,89.30
2023-05-16T18:42:29.007Z,86.83
2023-05-16T18:45:31.305Z,84.99
2023-05-16T18:48:35.957Z,85.80
2023-05-16T18:51:38.468Z,84.78
2023-05-16T18:54:40.600Z,84.50
2023-05-16T18:57:44.360Z,84.25
2023-05-16T19:00:46.442Z,82.23
2023-05-16T19:03:49.097Z,86.86
2023-05-16T19:06:52.065Z,88.63
2023-05-16T19:09:54.244Z,91.46
2023-05-16T19:13:07.085Z,90.70
2023-05-16T19:16:09.423Z,89.70
2023-05-16T19:19:11.461Z,90.21
2023-05-16T19:22:13.727Z,91.12
2023-05-16T19:25:15.787Z,86.71
2023-05-16T19:28:18.233Z,88.05
2023-05-16T19:31:20.571Z,89.01
2023-05-16T19:34:22.915Z,91.89
2023-05-16T19:37:24.946Z,91.05
2023-05-16T19:40:26.875Z,92.20
2023-05-16T19:43:29.642Z,94.65
2023-05-16T19:46:34.798Z,97.25
2023-05-16T19:49:36.746Z,91.17
2023-05-16T19:52:38.804Z,91.76
2023-05-16T19:55:40.832Z,91.52
2023-05-16T19:58:44.046Z,90.80
2023-05-16T20:01:45.980Z,93.35
2023-05-16T20:04:48.135Z,91.61
2023-05-16T20:07:50.182Z,90.85
2023-05-16T20:10:52.069Z,90.90
2023-05-16T20:13:55.866Z,88.82
2023-05-16T20:16:58.903Z,90.65
2023-05-16T20:20:01.288Z,88.38
2023-05-16T20:23:03.835Z,87.42
2023-05-16T20:26:05.772Z,91.89
2023-05-16T20:29:07.746Z,88.24
2023-05-16T20:32:09.619Z,90.52
2023-05-16T20:35:11.788Z,89.07
2023-05-16T20:38:13.896Z,88.17
2023-05-16T20:41:16.049Z,92.76
2023-05-16T20:44:18.088Z,94.37
2023-05-16T20:47:19.973Z,94.17
2023-05-16T20:50:22.178Z,90.81
2023-05-16T20:53:24.222Z,87.17
2023-05-16T20:56:26.417Z,91.15
2023-05-16T20:59:28.440Z,90.17
2023-05-16T21:02:32.582Z,85.96
2023-05-16T21:05:36.416Z,87.21
2023-05-16T21:08:38.785Z,92.37
2023-05-16T21:11:40.913Z,95.12
2023-05-16T21:14:44.132Z,88.84
2023-05-16T21:17:46.367Z,81.49
2023-05-16T21:20:48.361Z,81.67
2023-05-16T21:23:50.770Z,82.50
2023-05-16T21:26:52.900Z,94.06
2023-05-16T21:29:54.952Z,90.40
2023-05-16T21:32:57.022Z,85.18
2023-05-16T21:36:00.561Z,80.99
2023-05-16T21:39:04.687Z,85.70
2023-05-16T21:42:06.901Z,86.59
2023-05-16T21:45:12.639Z,86.28
2023-05-16T21:48:14.794Z,81.83
2023-05-16T21:51:17.438Z,81.92
2023-05-16T21:54:19.489Z,87.07
2023-05-16T21:57:21.484Z,86.13
2023-05-16T22:00:23.478Z,83.37
2023-05-16T22:03:25.611Z,82.85
2023-05-16T22:06:27.956Z,86.75
2023-05-16T22:09:30.133Z,90.83
2023-05-16T22:12:32.224Z,88.55
2023-05-16T22:15:34.444Z,84.05
2023-05-16T22:18:36.876Z,93.65
2023-05-16T22:21:41.537Z,85.28
2023-05-16T22:24:43.400Z,83.79
2023-05-16T22:27:45.439Z,79.54
2023-05-16T22:30:47.373Z,80.73
2023-05-16T22:33:49.392Z,88.45
2023-05-16T22:36:51.920Z,88.69
2023-05-16T22:39:55.965Z,82.49
2023-05-16T22:42:58.033Z,81.09
2023-05-16T22:46:02.882Z,82.45
2023-05-16T22:49:05.370Z,84.97
2023-05-16T22:52:07.387Z,83.64
2023-05-16T22:55:09.360Z,78.51
2023-05-16T22:58:11.608Z,81.93
2023-05-16T23:01:13.810Z,92.14
2023-05-16T23:04:16.228Z,87.67
2023-05-16T23:07:18.488Z,81.31
2023-05-16T23:10:20.665Z,87.65
2023-05-16T23:13:24.558Z,86.31
2023-05-16T23:16:26.680Z,88.10
2023-05-16T23:19:28.964Z,84.53
2023-05-16T23:22:31.024Z,89.71
2023-05-16T23:25:33.066Z,89.36
2023-05-16T23:28:41.132Z,89.87
2023-05-16T23:31:43.022Z,86.75
2023-05-16T23:34:44.998Z,80.98
2023-05-16T23:37:46.979Z,80.63
2023-05-16T23:40:50.606Z,84.08
2023-05-16T23:43:52.675Z,82.44
2023-05-16T23:46:54.591Z,80.32
2023-05-16T23:49:57.033Z,83.05
2023-05-16T23:52:59.028Z,84.48
2023-05-16T23:56:01.071Z,83.01
2023-05-16T23:59:03.066Z,82.89
